createdAt,value
2023-01-01T00:18:28.842Z,19.8
2023-01-01T00:48:29.099Z,19.6
2023-01-01T01:18:29.109Z,19.6
2023-01-01T01:48:29.097Z,19.6
2023-01-01T02:18:29.009Z,19.5
2023-01-01T02:48:29.053Z,19.5
2023-01-01T03:18:29.038Z,19.5
2023-01-01T03:48:29.071Z,19.4
2023-01-01T04:18:29.027Z,19.4
2023-01-01T04:48:29.013Z,19.3
2023-01-01T05:18:29.083Z,19.3
2023-01-01T05:48:29.042Z,19.5
2023-01-01T06:18:28.820Z,19.5
2023-01-01T06:48:29.017Z,19.7
2023-01-01T07:18:29.055Z,19.8
2023-01-01T07:48:29.007Z,19.9
2023-01-01T08:18:29.029Z,19.9
2023-01-01T08:48:29.038Z,20.0
2023-01-01T09:18:29.056Z,20.0
2023-01-01T09:48:29.019Z,20.1
2023-01-01T10:18:29.099Z,20.1
2023-01-01T10:48:29.111Z,20.1
2023-01-01T11:18:28.861Z,20.1
2023-01-01T11:48:29.004Z,20.1
2023-01-01T12:18:29.075Z,20.1
2023-01-01T12:48:29.142Z,20.3
2023-01-01T13:18:29.001Z,20.3
2023-01-01T13:48:29.110Z,20.3
2023-01-01T14:18:29.035Z,20.3
2023-01-01T14:48:29.021Z,20.3
2023-01-01T15:18:28.999Z,20.3
2023-01-01T15:48:29.157Z,20.3
2023-01-01T16:18:29.047Z,20.3
2023-01-01T16:48:29.127Z,20.3
2023-01-01T17:18:28.994Z,20.3
2023-01-01T17:48:29.111Z,20.3
2023-01-01T18:18:29.081Z,20.3
2023-01-01T18:48:28.683Z,20.3
2023-01-01T19:18:29.090Z,20.3
2023-01-01T19:48:28.996Z,20.3
2023-01-01T20:18:28.974Z,20.3
2023-01-01T20:48:29.012Z,20.3
2023-01-01T21:18:29.004Z,20.1
2023-01-01T21:48:29.044Z,20.1
2023-01-01T22:18:29.047Z,20.0
2023-01-01T22:48:28.953Z,20.0
2023-01-01T23:18:29.048Z,19.9
2023-01-01T23:48:28.941Z,19.8
